createdAt,value
2018-11-25T00:01:31.114Z,97922.56
2018-11-25T00:03:59.445Z,97920.59
2018-11-25T00:06:27.800Z,97915.42
2018-11-25T00:08:56.087Z,97912.48
2018-11-25T00:11:24.385Z,97919.47
2018-11-25T00:13:52.780Z,97916.80
2018-11-25T00:16:21.080Z,97921.21
2018-11-25T00:18:49.392Z,97930.40
2018-11-25T00:21:17.754Z,97924.95
2018-11-25T00:23:46.125Z,97910.23
2018-11-25T00:26:14.410Z,97913.64
2018-11-25T00:28:42.753Z,97902.38
2018-11-25T00:31:11.168Z,97909.09
2018-11-25T00:33:39.632Z,97914.34
2018-11-25T00:36:07.957Z,97904.08
2018-11-25T00:38:36.254Z,97897.25
2018-11-25T00:41:04.868Z,97902.12
2018-11-25T00:43:33.214Z,97899.94
2018-11-25T00:46:01.547Z,97901.95
2018-11-25T00:48:29.882Z,97895.64
2018-11-25T00:50:58.158Z,97892.25
2018-11-25T00:53:26.521Z,97887.95
2018-11-25T00:55:54.773Z,97895.59
2018-11-25T00:58:23.093Z,97895.68
2018-11-25T01:00:51.471Z,97902.56
2018-11-25T01:03:19.760Z,97893.15
2018-11-25T01:05:48.019Z,97895.20
2018-11-25T01:08:16.295Z,97883.81
2018-11-25T01:10:44.794Z,97881.91
2018-11-25T01:13:13.085Z,97889.20
2018-11-25T01:15:41.884Z,97886.11
2018-11-25T01:18:10.147Z,97885.90
2018-11-25T01:20:38.369Z,97888.62
2018-11-25T01:23:06.706Z,97876.56
2018-11-25T01:25:35.095Z,97880.19
2018-11-25T01:28:03.464Z,97881.26
2018-11-25T01:30:31.889Z,97877.88
2018-11-25T01:33:00.209Z,97871.07
2018-11-25T01:35:28.589Z,97870.30
2018-11-25T01:37:57.181Z,97870.94
2018-11-25T01:40:25.529Z,97867.28
2018-11-25T01:42:53.837Z,97870.92
2018-11-25T01:45:22.244Z,97860.59
2018-11-25T01:47:50.576Z,97860.05
2018-11-25T01:50:19.090Z,97857.81
2018-11-25T01:52:47.859Z,97854.94
2018-11-25T01:55:17.354Z,97849.57
2018-11-25T01:57:45.640Z,97845.67
2018-11-25T02:00:17.906Z,97845.49
2018-11-25T02:02:46.327Z,97841.16
2018-11-25T02:05:14.753Z,97834.98
2018-11-25T02:07:43.362Z,97834.64
2018-11-25T02:10:16.307Z,97830.36
2018-11-25T02:12:44.742Z,97827.63
2018-11-25T02:15:15.114Z,97821.16
2018-11-25T02:17:43.619Z,97821.02
2018-11-25T02:20:14.270Z,97826.80
2018-11-25T02:22:42.762Z,97824.81
2018-11-25T02:25:11.224Z,97819.34
2018-11-25T02:27:39.573Z,97816.64
2018-11-25T02:30:10.743Z,97802.92
2018-11-25T02:32:39.126Z,97804.27
2018-11-25T02:35:09.249Z,97803.11
2018-11-25T02:37:38.637Z,97803.06
2018-11-25T02:40:11.806Z,97804.19
2018-11-25T02:42:40.134Z,97805.72
2018-11-25T02:45:14.033Z,97807.58
2018-11-25T02:47:42.480Z,97802.02
2018-11-25T02:50:27.917Z,97804.63
2018-11-25T02:52:58.348Z,97801.97
2018-11-25T02:55:27.224Z,97797.87
2018-11-25T02:57:55.585Z,97791.87
2018-11-25T03:00:23.986Z,97790.11
2018-11-25T03:02:52.281Z,97787.94
2018-11-25T03:05:20.679Z,97794.75
2018-11-25T03:07:49.125Z,97792.67
2018-11-25T03:10:17.420Z,97788.02
2018-11-25T03:12:45.865Z,97789.27
2018-11-25T03:15:16.712Z,97787.33
2018-11-25T03:17:45.185Z,97777.54
2018-11-25T03:20:15.636Z,97776.67
2018-11-25T03:22:43.950Z,97774.35
2018-11-25T03:25:14.431Z,97769.02
2018-11-25T03:27:42.701Z,97772.07
2018-11-25T03:30:16.026Z,97775.59
2018-11-25T03:32:44.985Z,97774.98
2018-11-25T03:35:14.187Z,97770.98
2018-11-25T03:37:42.537Z,97766.95
2018-11-25T03:40:12.791Z,97764.73
2018-11-25T03:42:41.150Z,97773.48
2018-11-25T03:45:16.705Z,97774.26
2018-11-25T03:47:45.185Z,97766.71
2018-11-25T03:50:14.377Z,97764.25
2018-11-25T03:52:44.044Z,97767.41
2018-11-25T03:55:13.375Z,97770.19
2018-11-25T03:57:48.353Z,97771.10
2018-11-25T04:00:23.577Z,97780.30
2018-11-25T04:02:53.173Z,97778.11
2018-11-25T04:05:21.549Z,97773.11
2018-11-25T04:07:49.898Z,97770.30
2018-11-25T04:10:19.121Z,97772.90
2018-11-25T04:12:47.585Z,97770.61
2018-11-25T04:15:16.832Z,97758.69
2018-11-25T04:17:45.413Z,97761.02
2018-11-25T04:20:15.812Z,97762.00
2018-11-25T04:22:44.132Z,97753.37
2018-11-25T04:25:13.033Z,97748.77
2018-11-25T04:27:41.340Z,97745.55
2018-11-25T04:30:11.883Z,97743.95
2018-11-25T04:32:40.198Z,97741.73
2018-11-25T04:35:09.856Z,97736.31
2018-11-25T04:37:38.225Z,97736.66
2018-11-25T04:40:08.866Z,97740.24
2018-11-25T04:42:37.144Z,97745.47
2018-11-25T04:45:06.112Z,97747.75
2018-11-25T04:47:34.418Z,97744.94
2018-11-25T04:50:02.920Z,97748.69
2018-11-25T04:52:31.438Z,97739.47
2018-11-25T04:54:59.975Z,97745.09
2018-11-25T04:57:28.406Z,97736.28
2018-11-25T04:59:56.781Z,97740.00
2018-11-25T05:02:25.327Z,97730.73
2018-11-25T05:04:53.611Z,97731.72
2018-11-25T05:07:21.958Z,97735.63
2018-11-25T05:09:50.323Z,97735.11
2018-11-25T05:12:18.693Z,97737.59
2018-11-25T05:14:47.007Z,97735.01
2018-11-25T05:17:15.353Z,97739.58
2018-11-25T05:19:43.708Z,97730.94
2018-11-25T05:22:12.000Z,97731.88
2018-11-25T05:24:40.365Z,97728.08
2018-11-25T05:27:08.770Z,97717.81
2018-11-25T05:29:37.066Z,97713.45
2018-11-25T05:32:05.966Z,97715.82
2018-11-25T05:34:34.381Z,97719.73
2018-11-25T05:37:02.746Z,97719.97
2018-11-25T05:39:31.095Z,97721.04
2018-11-25T05:41:59.447Z,97720.19
2018-11-25T05:44:27.711Z,97717.45
2018-11-25T05:46:56.140Z,97709.98
2018-11-25T05:49:24.540Z,97708.11
2018-11-25T05:51:52.838Z,97703.34
2018-11-25T05:54:21.277Z,97709.60
2018-11-25T05:56:49.689Z,97709.85
2018-11-25T05:59:18.015Z,97716.13
2018-11-25T06:01:46.357Z,97716.39
2018-11-25T06:04:14.750Z,97706.67
2018-11-25T06:06:43.196Z,97708.04
2018-11-25T06:09:11.708Z,97710.20
2018-11-25T06:11:40.606Z,97710.57
2018-11-25T06:14:08.880Z,97712.85
2018-11-25T06:16:37.797Z,97718.77
2018-11-25T06:19:06.135Z,97711.03
2018-11-25T06:21:34.439Z,97710.65
2018-11-25T06:24:02.803Z,97714.03
2018-11-25T06:26:31.096Z,97710.45
2018-11-25T06:28:59.401Z,97707.17
2018-11-25T06:31:28.132Z,97711.80
2018-11-25T06:33:56.117Z,97708.02
2018-11-25T06:36:24.481Z,97707.78
2018-11-25T06:38:53.161Z,97702.67
2018-11-25T06:41:22.049Z,97710.30
2018-11-25T06:43:50.376Z,97704.41
2018-11-25T06:46:18.928Z,97705.53
2018-11-25T06:48:54.586Z,97705.86
2018-11-25T06:51:15.915Z,97702.76
2018-11-25T06:53:44.198Z,97701.81
2018-11-25T06:56:12.501Z,97705.42
2018-11-25T06:58:40.823Z,97702.59
2018-11-25T07:01:09.391Z,97702.55
2018-11-25T07:03:37.986Z,97699.74
2018-11-25T07:06:06.477Z,97708.94
2018-11-25T07:08:35.206Z,97709.39
2018-11-25T07:11:03.533Z,97708.73
2018-11-25T07:13:31.822Z,97710.02
2018-11-25T07:16:00.159Z,97708.28
2018-11-25T07:18:28.627Z,97706.65
2018-11-25T07:20:57.070Z,97696.09
2018-11-25T07:23:25.508Z,97700.92
2018-11-25T07:25:54.028Z,97696.86
2018-11-25T07:28:22.479Z,97697.08
2018-11-25T07:30:50.918Z,97696.53
2018-11-25T07:33:19.225Z,97699.82
2018-11-25T07:35:47.485Z,97697.67
2018-11-25T07:38:15.883Z,97696.87
2018-11-25T07:40:44.512Z,97698.85
2018-11-25T07:43:13.147Z,97699.03
2018-11-25T07:45:41.831Z,97694.20
2018-11-25T07:48:10.219Z,97700.52
2018-11-25T07:50:38.535Z,97693.50
2018-11-25T07:53:06.858Z,97702.43
2018-11-25T07:55:35.139Z,97695.97
2018-11-25T07:58:03.601Z,97691.96
2018-11-25T08:00:31.880Z,97685.56
2018-11-25T08:03:00.153Z,97680.77
2018-11-25T08:05:28.605Z,97685.14
2018-11-25T08:07:56.897Z,97683.52
2018-11-25T08:10:25.213Z,97679.16
2018-11-25T08:12:53.532Z,97672.18
2018-11-25T08:15:21.814Z,97673.43
2018-11-25T08:17:50.227Z,97671.44
2018-11-25T08:20:20.550Z,97663.84
2018-11-25T08:22:49.393Z,97661.44
2018-11-25T08:25:20.519Z,97659.59
2018-11-25T08:27:49.001Z,97663.84
2018-11-25T08:30:21.065Z,97651.22
2018-11-25T08:32:49.701Z,97640.03
2018-11-25T08:35:18.385Z,97634.17
2018-11-25T08:37:46.872Z,97628.56
2018-11-25T08:40:18.057Z,97631.37
2018-11-25T08:42:46.409Z,97625.80
2018-11-25T08:45:15.376Z,97619.95
2018-11-25T08:47:44.222Z,97611.73
2018-11-25T08:50:14.477Z,97607.23
2018-11-25T08:52:43.900Z,97602.73
2018-11-25T08:55:14.521Z,97598.80
2018-11-25T08:57:42.933Z,97602.27
2018-11-25T09:00:14.479Z,97600.80
2018-11-25T09:02:42.933Z,97593.80
2018-11-25T09:05:12.603Z,97587.42
2018-11-25T09:07:41.132Z,97582.66
2018-11-25T09:10:17.321Z,97582.88
2018-11-25T09:12:47.384Z,97587.02
2018-11-25T09:15:19.617Z,97585.89
2018-11-25T09:17:47.967Z,97582.14
2018-11-25T09:20:17.363Z,97581.88
2018-11-25T09:22:45.720Z,97575.65
2018-11-25T09:25:18.230Z,97575.61
2018-11-25T09:27:46.506Z,97571.99
2018-11-25T09:30:18.847Z,97567.48
2018-11-25T09:32:47.140Z,97556.91
2018-11-25T09:35:15.641Z,97554.97
2018-11-25T09:37:44.075Z,97557.00
2018-11-25T09:40:17.461Z,97555.33
2018-11-25T09:42:45.759Z,97540.32
2018-11-25T09:45:15.963Z,97540.05
2018-11-25T09:47:44.436Z,97538.41
2018-11-25T09:50:14.831Z,97533.87
2018-11-25T09:52:43.308Z,97530.44
2018-11-25T09:55:15.204Z,97526.81
2018-11-25T09:57:45.116Z,97527.65
2018-11-25T10:00:17.812Z,97525.66
2018-11-25T10:02:46.131Z,97527.69
2018-11-25T10:05:14.448Z,97528.62
2018-11-25T10:07:43.589Z,97523.89
2018-11-25T10:10:15.796Z,97518.13
2018-11-25T10:12:44.133Z,97516.43
2018-11-25T10:15:13.437Z,97514.88
2018-11-25T10:17:41.794Z,97499.28
2018-11-25T10:20:11.557Z,97500.16
2018-11-25T10:22:39.830Z,97500.31
2018-11-25T10:25:09.940Z,97503.72
2018-11-25T10:27:38.269Z,97503.41
2018-11-25T10:30:13.240Z,97497.17
2018-11-25T10:32:42.412Z,97486.06
2018-11-25T10:35:10.530Z,97489.56
2018-11-25T10:37:38.966Z,97489.14
2018-11-25T10:40:12.606Z,97481.72
2018-11-25T10:42:41.036Z,97468.92
2018-11-25T10:45:13.097Z,97467.97
2018-11-25T10:47:41.471Z,97468.81
2018-11-25T10:50:13.086Z,97459.59
2018-11-25T10:52:41.484Z,97457.91
2018-11-25T10:55:10.809Z,97452.78
2018-11-25T10:57:39.616Z,97449.80
2018-11-25T11:00:17.295Z,97447.50
2018-11-25T11:02:45.834Z,97445.30
2018-11-25T11:05:19.472Z,97447.27
2018-11-25T11:07:47.953Z,97443.98
2018-11-25T11:10:16.277Z,97436.43
2018-11-25T11:12:44.701Z,97431.19
2018-11-25T11:15:13.143Z,97428.87
2018-11-25T11:17:41.473Z,97423.79
2018-11-25T11:20:10.822Z,97413.24
2018-11-25T11:22:39.237Z,97410.22
2018-11-25T11:25:08.989Z,97409.56
2018-11-25T11:27:37.533Z,97403.88
2018-11-25T11:30:08.867Z,97405.02
2018-11-25T11:32:37.444Z,97395.66
2018-11-25T11:35:07.310Z,97393.41
2018-11-25T11:37:36.331Z,97390.79
2018-11-25T11:40:06.957Z,97382.08
2018-11-25T11:42:35.325Z,97381.45
2018-11-25T11:45:04.015Z,97380.58
2018-11-25T11:47:32.488Z,97376.88
2018-11-25T11:50:00.891Z,97371.27
2018-11-25T11:52:29.651Z,97371.16
2018-11-25T11:54:58.082Z,97373.88
2018-11-25T11:57:26.610Z,97369.67
2018-11-25T11:59:55.081Z,97369.66
2018-11-25T12:02:23.478Z,97368.01
2018-11-25T12:04:51.814Z,97364.66
2018-11-25T12:07:20.170Z,97364.00
2018-11-25T12:09:48.524Z,97365.54
2018-11-25T12:12:16.896Z,97357.13
2018-11-25T12:14:45.240Z,97361.84
2018-11-25T12:17:13.701Z,97355.84
2018-11-25T12:19:42.021Z,97352.27
2018-11-25T12:22:10.423Z,97349.28
2018-11-25T12:24:38.848Z,97348.30
2018-11-25T12:27:07.273Z,97339.06
2018-11-25T12:29:35.705Z,97341.22
2018-11-25T12:32:04.024Z,97339.47
2018-11-25T12:34:32.483Z,97334.59
2018-11-25T12:37:00.936Z,97334.67
2018-11-25T12:39:29.246Z,97331.70
2018-11-25T12:41:57.526Z,97330.45
2018-11-25T12:44:29.322Z,97334.67
2018-11-25T12:46:54.174Z,97333.36
2018-11-25T12:49:22.454Z,97323.27
2018-11-25T12:51:50.790Z,97323.09
2018-11-25T12:54:19.125Z,97323.33
2018-11-25T12:56:51.788Z,97315.86
2018-11-25T12:59:15.952Z,97314.47
2018-11-25T13:01:44.344Z,97315.66
2018-11-25T13:04:13.334Z,97309.87
2018-11-25T13:06:41.749Z,97304.95
2018-11-25T13:09:10.216Z,97303.48
2018-11-25T13:11:38.569Z,97297.14
2018-11-25T13:14:06.997Z,97294.13
2018-11-25T13:16:35.335Z,97288.20
2018-11-25T13:19:03.651Z,97285.44
2018-11-25T13:21:32.073Z,97283.77
2018-11-25T13:24:00.410Z,97287.23
2018-11-25T13:26:28.760Z,97289.45
2018-11-25T13:28:57.039Z,97291.27
2018-11-25T13:31:25.435Z,97283.33
2018-11-25T13:33:53.775Z,97286.08
2018-11-25T13:36:22.121Z,97286.50
2018-11-25T13:38:50.479Z,97281.07
2018-11-25T13:41:18.850Z,97281.01
2018-11-25T13:43:47.228Z,97275.97
2018-11-25T13:46:15.533Z,97277.20
2018-11-25T13:48:44.262Z,97283.53
2018-11-25T13:51:12.546Z,97280.61
2018-11-25T13:53:40.948Z,97272.55
2018-11-25T13:56:09.351Z,97273.65
2018-11-25T13:58:37.720Z,97270.16
2018-11-25T14:01:06.498Z,97279.16
2018-11-25T14:03:37.654Z,97277.97
2018-11-25T14:06:09.731Z,97286.48
2018-11-25T14:08:38.047Z,97288.28
2018-11-25T14:11:09.102Z,97284.03
2018-11-25T14:13:37.448Z,97287.67
2018-11-25T14:16:07.908Z,97282.75
2018-11-25T14:18:36.196Z,97284.38
2018-11-25T14:21:05.672Z,97280.94
2018-11-25T14:23:34.008Z,97282.75
2018-11-25T14:26:09.075Z,97289.53
2018-11-25T14:28:37.382Z,97284.97
2018-11-25T14:31:06.092Z,97290.77
2018-11-25T14:33:34.459Z,97285.60
2018-11-25T14:36:03.068Z,97288.22
2018-11-25T14:38:31.354Z,97290.55
2018-11-25T14:40:59.708Z,97288.81
2018-11-25T14:43:28.013Z,97282.19
2018-11-25T14:45:56.438Z,97287.21
2018-11-25T14:48:24.874Z,97284.94
2018-11-25T14:50:53.242Z,97285.16
2018-11-25T14:53:21.610Z,97302.27
2018-11-25T14:55:49.879Z,97308.20
2018-11-25T14:58:18.236Z,97301.96
2018-11-25T15:00:46.755Z,97313.99
2018-11-25T15:03:15.772Z,97314.67
2018-11-25T15:05:45.616Z,97309.69
2018-11-25T15:08:17.590Z,97317.63
2018-11-25T15:10:45.973Z,97314.64
2018-11-25T15:13:14.816Z,97315.95
2018-11-25T15:15:43.296Z,97317.01
2018-11-25T15:18:12.086Z,97317.56
2018-11-25T15:20:40.420Z,97313.62
2018-11-25T15:23:12.345Z,97310.30
2018-11-25T15:25:47.416Z,97312.38
2018-11-25T15:28:15.812Z,97314.40
2018-11-25T15:30:47.616Z,97317.16
2018-11-25T15:33:16.130Z,97318.53
2018-11-25T15:35:44.483Z,97322.04
2018-11-25T15:38:13.058Z,97326.15
2018-11-25T15:40:41.945Z,97324.77
2018-11-25T15:43:11.476Z,97325.00
2018-11-25T15:45:40.011Z,97340.27
2018-11-25T15:48:12.917Z,97342.46
2018-11-25T15:50:41.341Z,97345.42
2018-11-25T15:53:10.762Z,97348.93
2018-11-25T15:55:39.095Z,97347.23
2018-11-25T15:58:08.258Z,97344.32
2018-11-25T16:00:36.630Z,97348.47
2018-11-25T16:03:07.188Z,97353.89
2018-11-25T16:05:35.596Z,97361.92
2018-11-25T16:08:04.512Z,97368.02
2018-11-25T16:10:32.302Z,97364.04
2018-11-25T16:13:00.611Z,97360.45
2018-11-25T16:15:29.264Z,97367.89
2018-11-25T16:17:57.618Z,97372.16
2018-11-25T16:20:28.050Z,97367.60
2018-11-25T16:22:59.789Z,97372.80
2018-11-25T16:25:38.885Z,97375.71
2018-11-25T16:28:13.024Z,97372.16
2018-11-25T16:30:41.456Z,97378.82
2018-11-25T16:33:09.822Z,97377.97
2018-11-25T16:35:38.198Z,97383.92
2018-11-25T16:38:07.485Z,97380.86
2018-11-25T16:40:36.398Z,97376.09
2018-11-25T16:43:04.925Z,97369.91
2018-11-25T16:45:34.553Z,97375.34
2018-11-25T16:48:02.845Z,97374.73
2018-11-25T16:50:31.251Z,97373.34
2018-11-25T16:53:00.084Z,97362.88
2018-11-25T16:55:28.490Z,97358.56
2018-11-25T16:57:56.833Z,97358.64
2018-11-25T17:00:25.261Z,97358.08
2018-11-25T17:02:53.630Z,97360.44
2018-11-25T17:05:30.159Z,97357.13
2018-11-25T17:08:36.272Z,97352.98
2018-11-25T17:11:04.648Z,97354.14
2018-11-25T17:13:33.243Z,97362.88
2018-11-25T17:16:02.356Z,97361.80
2018-11-25T17:18:30.662Z,97361.20
2018-11-25T17:20:58.924Z,97360.92
2018-11-25T17:23:27.253Z,97357.59
2018-11-25T17:25:55.845Z,97359.14
2018-11-25T17:28:24.154Z,97361.70
2018-11-25T17:30:52.494Z,97364.63
2018-11-25T17:33:21.823Z,97362.66
2018-11-25T17:35:49.245Z,97362.43
2018-11-25T17:38:17.712Z,97364.02
2018-11-25T17:40:46.411Z,97365.29
2018-11-25T17:43:19.211Z,97368.45
2018-11-25T17:45:47.726Z,97370.81
2018-11-25T17:48:16.132Z,97368.45
2018-11-25T17:50:44.419Z,97363.62
2018-11-25T17:53:20.463Z,97363.01
2018-11-25T17:55:41.393Z,97357.33
2018-11-25T17:58:09.737Z,97359.60
2018-11-25T18:00:43.804Z,97357.41
2018-11-25T18:03:29.501Z,97354.89
2018-11-25T18:05:58.057Z,97351.45
2018-11-25T18:08:26.359Z,97346.53
2018-11-25T18:10:54.904Z,97356.16
2018-11-25T18:13:25.540Z,97347.56
2018-11-25T18:15:55.263Z,97347.48
2018-11-25T18:18:27.755Z,97347.02
2018-11-25T18:20:58.488Z,97351.09
2018-11-25T18:23:27.010Z,97345.84
2018-11-25T18:25:55.310Z,97347.66
2018-11-25T18:28:23.868Z,97342.48
2018-11-25T18:30:52.509Z,97346.30
2018-11-25T18:33:20.830Z,97345.06
2018-11-25T18:35:49.159Z,97342.01
2018-11-25T18:38:17.516Z,97347.63
2018-11-25T18:40:45.922Z,97354.60
2018-11-25T18:43:14.232Z,97348.00
2018-11-25T18:45:42.678Z,97350.44
2018-11-25T18:48:12.612Z,97351.86
2018-11-25T18:50:41.114Z,97355.04
2018-11-25T18:53:11.113Z,97353.02
2018-11-25T18:55:38.330Z,97352.74
2018-11-25T18:58:07.003Z,97353.18
2018-11-25T19:00:37.512Z,97352.02
2018-11-25T19:03:06.166Z,97345.84
2018-11-25T19:05:34.454Z,97343.79
2018-11-25T19:08:02.851Z,97348.14
2018-11-25T19:10:31.338Z,97344.30
2018-11-25T19:12:59.650Z,97333.23
2018-11-25T19:15:28.092Z,97332.38
2018-11-25T19:17:56.377Z,97331.12
2018-11-25T19:20:26.958Z,97324.84
2018-11-25T19:22:55.909Z,97318.92
2018-11-25T19:25:24.240Z,97317.92
2018-11-25T19:27:53.181Z,97317.77
2018-11-25T19:30:26.302Z,97314.25
2018-11-25T19:32:50.548Z,97315.33
2018-11-25T19:35:20.481Z,97318.85
2018-11-25T19:37:49.890Z,97317.84
2018-11-25T19:40:21.901Z,97311.00
2018-11-25T19:42:50.319Z,97308.52
2018-11-25T19:45:23.180Z,97313.51
2018-11-25T19:47:51.699Z,97311.30
2018-11-25T19:50:22.388Z,97308.31
2018-11-25T19:52:50.723Z,97302.09
2018-11-25T19:55:19.155Z,97302.72
2018-11-25T19:57:47.616Z,97301.38
2018-11-25T20:00:23.960Z,97308.17
2018-11-25T20:02:52.358Z,97303.66
2018-11-25T20:05:20.819Z,97299.88
2018-11-25T20:07:49.289Z,97305.05
2018-11-25T20:10:21.856Z,97305.59
2018-11-25T20:12:51.237Z,97310.84
2018-11-25T20:15:20.162Z,97305.90
2018-11-25T20:17:54.184Z,97308.95
2018-11-25T20:20:20.230Z,97309.86
2018-11-25T20:22:48.924Z,97310.08
2018-11-25T20:25:18.009Z,97314.67
2018-11-25T20:27:48.426Z,97308.63
2018-11-25T20:30:20.089Z,97316.63
2018-11-25T20:32:53.742Z,97316.58
2018-11-25T20:35:22.235Z,97316.53
2018-11-25T20:37:56.023Z,97324.45
2018-11-25T20:40:24.354Z,97319.63
2018-11-25T20:42:52.705Z,97319.72
2018-11-25T20:45:27.315Z,97314.84
2018-11-25T20:47:56.926Z,97313.66
2018-11-25T20:50:25.450Z,97317.46
2018-11-25T20:52:59.157Z,97320.77
2018-11-25T20:55:27.458Z,97318.14
2018-11-25T20:57:55.921Z,97313.41
2018-11-25T21:00:25.848Z,97315.56
2018-11-25T21:02:54.293Z,97317.84
2018-11-25T21:05:23.796Z,97315.75
2018-11-25T21:07:51.563Z,97313.51
2018-11-25T21:10:20.688Z,97310.23
2018-11-25T21:12:51.467Z,97305.52
2018-11-25T21:15:19.952Z,97306.77
2018-11-25T21:17:48.693Z,97306.54
2018-11-25T21:20:19.579Z,97297.67
2018-11-25T21:22:47.991Z,97291.33
2018-11-25T21:25:17.551Z,97293.69
2018-11-25T21:27:46.265Z,97288.56
2018-11-25T21:30:21.874Z,97281.62
2018-11-25T21:32:51.498Z,97281.40
2018-11-25T21:35:20.042Z,97284.91
2018-11-25T21:37:51.807Z,97286.27
2018-11-25T21:40:21.558Z,97290.94
2018-11-25T21:42:50.049Z,97289.63
2018-11-25T21:45:19.468Z,97290.16
2018-11-25T21:47:48.337Z,97293.41
2018-11-25T21:50:17.937Z,97290.23
2018-11-25T21:52:46.421Z,97292.79
2018-11-25T21:55:16.065Z,97290.42
2018-11-25T21:57:44.560Z,97291.25
2018-11-25T22:00:17.218Z,97290.33
2018-11-25T22:02:45.577Z,97291.30
2018-11-25T22:05:15.494Z,97294.73
2018-11-25T22:07:43.979Z,97291.64
2018-11-25T22:10:21.262Z,97297.54
2018-11-25T22:15:40.640Z,97298.52
2018-11-25T22:18:09.041Z,97296.16
2018-11-25T22:20:37.401Z,97294.63
2018-11-25T22:23:06.580Z,97304.51
2018-11-25T22:25:35.112Z,97302.33
2018-11-25T22:28:03.487Z,97303.69
2018-11-25T22:30:32.077Z,97311.47
2018-11-25T22:33:00.419Z,97311.81
2018-11-25T22:35:28.970Z,97314.37
2018-11-25T22:37:57.359Z,97308.34
2018-11-25T22:40:25.806Z,97316.75
2018-11-25T22:42:54.236Z,97316.37
2018-11-25T22:45:23.910Z,97311.27
2018-11-25T22:47:52.338Z,97311.78
2018-11-25T22:50:21.682Z,97310.03
2018-11-25T22:52:50.764Z,97316.64
2018-11-25T22:55:23.533Z,97311.78
2018-11-25T22:57:52.164Z,97311.58
2018-11-25T23:00:30.717Z,97299.37
2018-11-25T23:02:59.170Z,97306.20
2018-11-25T23:05:38.787Z,97308.38
2018-11-25T23:08:07.027Z,97308.45
2018-11-25T23:10:36.328Z,97310.39
2018-11-25T23:13:04.699Z,97309.19
2018-11-25T23:15:33.076Z,97313.24
2018-11-25T23:18:01.462Z,97316.73
2018-11-25T23:20:29.801Z,97313.86
2018-11-25T23:22:58.334Z,97307.88
2018-11-25T23:25:26.699Z,97305.70
2018-11-25T23:27:55.037Z,97300.95
2018-11-25T23:30:23.487Z,97295.77
2018-11-25T23:32:51.803Z,97290.05
2018-11-25T23:35:21.509Z,97286.14
2018-11-25T23:37:49.852Z,97288.77
2018-11-25T23:40:18.109Z,97292.38
2018-11-25T23:42:46.779Z,97294.15
2018-11-25T23:45:15.877Z,97293.58
2018-11-25T23:47:44.210Z,97293.99
2018-11-25T23:50:13.762Z,97295.30
2018-11-25T23:52:42.928Z,97287.15
2018-11-25T23:55:12.429Z,97289.63
2018-11-25T23:57:41.260Z,97283.48
